createdAt,value
2023-03-31T00:00:46.998Z,4.83
2023-03-31T00:03:21.948Z,4.03
2023-03-31T00:05:53.419Z,4.90
2023-03-31T00:08:21.316Z,3.80
2023-03-31T00:10:48.512Z,3.73
2023-03-31T00:13:15.574Z,4.03
2023-03-31T00:15:42.393Z,3.70
2023-03-31T00:18:09.130Z,4.03
2023-03-31T00:20:38.139Z,4.33
2023-03-31T00:23:11.230Z,4.27
2023-03-31T00:25:41.827Z,4.03
2023-03-31T00:28:08.661Z,3.97
2023-03-31T00:30:35.422Z,4.00
2023-03-31T00:33:02.720Z,3.97
2023-03-31T00:35:29.518Z,4.13
2023-03-31T00:37:58.029Z,4.63
2023-03-31T00:40:24.843Z,3.90
2023-03-31T00:42:52.200Z,3.17
2023-03-31T00:45:24.104Z,3.73
2023-03-31T00:48:10.191Z,3.90
2023-03-31T00:50:56.512Z,4.00
2023-03-31T00:53:30.065Z,3.13
2023-03-31T00:56:03.038Z,3.50
2023-03-31T00:58:33.353Z,3.97
2023-03-31T01:01:03.412Z,3.33
2023-03-31T01:03:33.494Z,3.27
2023-03-31T01:06:12.619Z,3.70
2023-03-31T01:08:41.489Z,3.67
2023-03-31T01:11:11.936Z,3.33
2023-03-31T01:13:41.333Z,3.77
2023-03-31T01:16:08.235Z,3.20
2023-03-31T01:18:36.101Z,3.77
2023-03-31T01:21:38.537Z,3.93
2023-03-31T01:24:26.650Z,3.40
2023-03-31T01:27:02.207Z,3.00
2023-03-31T01:30:05.989Z,3.70
2023-03-31T01:32:43.979Z,4.17
2023-03-31T01:35:16.808Z,4.30
2023-03-31T01:37:56.451Z,4.53
2023-03-31T01:40:29.640Z,4.50
2023-03-31T01:43:05.576Z,5.03
2023-03-31T01:46:00.976Z,4.80
2023-03-31T01:48:54.653Z,5.40
2023-03-31T01:51:37.999Z,4.80
2023-03-31T01:54:07.585Z,5.10
2023-03-31T01:56:46.753Z,5.10
2023-03-31T01:59:36.793Z,4.47
2023-03-31T02:02:10.830Z,4.30
2023-03-31T02:04:57.129Z,5.00
2023-03-31T02:07:35.040Z,4.20
2023-03-31T02:10:06.721Z,3.50
2023-03-31T02:12:35.413Z,4.13
2023-03-31T02:15:05.504Z,4.17
2023-03-31T02:17:32.966Z,3.73
2023-03-31T02:20:06.320Z,3.50
2023-03-31T02:22:37.595Z,3.77
2023-03-31T02:25:10.253Z,2.87
2023-03-31T02:27:42.209Z,3.00
2023-03-31T02:30:11.212Z,3.50
2023-03-31T02:32:40.855Z,4.57
2023-03-31T02:35:12.666Z,3.87
2023-03-31T02:37:41.670Z,3.63
2023-03-31T02:40:21.725Z,3.40
2023-03-31T02:42:49.148Z,3.03
2023-03-31T02:45:54.329Z,3.03
2023-03-31T02:48:28.801Z,2.80
2023-03-31T02:51:10.489Z,3.60
2023-03-31T02:54:15.876Z,3.60
2023-03-31T02:57:19.791Z,3.47
2023-03-31T03:00:02.390Z,3.37
2023-03-31T03:03:13.207Z,3.73
2023-03-31T03:05:58.834Z,3.77
2023-03-31T03:08:28.461Z,3.77
2023-03-31T03:11:03.240Z,4.00
2023-03-31T03:13:51.524Z,4.33
2023-03-31T03:16:43.530Z,4.50
2023-03-31T03:19:17.756Z,5.00
2023-03-31T03:21:46.156Z,5.53
2023-03-31T03:24:14.190Z,4.53
2023-03-31T03:26:41.233Z,4.60
2023-03-31T03:29:08.201Z,4.93
2023-03-31T03:31:34.946Z,4.60
2023-03-31T03:34:01.893Z,4.90
2023-03-31T03:36:28.597Z,3.90
2023-03-31T03:38:55.416Z,4.37
2023-03-31T03:41:22.207Z,4.37
2023-03-31T03:43:48.956Z,3.70
2023-03-31T03:46:15.802Z,3.70
2023-03-31T03:48:42.567Z,3.57
2023-03-31T03:51:09.326Z,3.77
2023-03-31T03:53:36.059Z,3.67
2023-03-31T03:56:02.919Z,3.43
2023-03-31T03:58:29.920Z,3.03
2023-03-31T04:00:57.158Z,3.03
2023-03-31T04:03:23.950Z,2.70
2023-03-31T04:05:50.709Z,2.70
2023-03-31T04:08:18.612Z,2.70
2023-03-31T04:10:47.206Z,2.73
2023-03-31T04:13:13.865Z,2.80
2023-03-31T04:15:42.783Z,2.60
2023-03-31T04:18:23.271Z,2.73
2023-03-31T04:21:06.086Z,2.70
2023-03-31T04:23:46.737Z,3.43
2023-03-31T04:26:15.011Z,3.03
2023-03-31T04:28:46.780Z,2.93
2023-03-31T04:31:26.833Z,3.40
2023-03-31T04:33:54.855Z,3.40
2023-03-31T04:36:22.339Z,3.27
2023-03-31T04:38:54.529Z,4.80
2023-03-31T04:41:22.922Z,4.03
2023-03-31T04:43:49.802Z,4.47
2023-03-31T04:46:17.078Z,4.07
2023-03-31T04:48:43.851Z,4.17
2023-03-31T04:51:10.679Z,4.10
2023-03-31T04:53:37.484Z,4.47
2023-03-31T04:56:04.906Z,6.07
2023-03-31T04:58:31.886Z,5.30
2023-03-31T05:00:58.918Z,3.87
2023-03-31T05:03:27.333Z,4.30
2023-03-31T05:05:54.338Z,3.90
2023-03-31T05:08:21.265Z,4.07
2023-03-31T05:10:48.097Z,3.63
2023-03-31T05:13:14.979Z,3.30
2023-03-31T05:15:45.084Z,3.67
2023-03-31T05:18:12.179Z,3.50
2023-03-31T05:20:39.155Z,3.60
2023-03-31T05:23:06.974Z,3.83
2023-03-31T05:25:34.007Z,5.20
2023-03-31T05:28:01.442Z,4.50
2023-03-31T05:30:28.885Z,4.80
2023-03-31T05:32:56.635Z,5.20
2023-03-31T05:35:23.675Z,4.70
2023-03-31T05:37:51.113Z,5.00
2023-03-31T05:40:18.147Z,4.70
2023-03-31T05:42:44.887Z,4.93
2023-03-31T05:45:12.628Z,5.57
2023-03-31T05:47:42.653Z,5.10
2023-03-31T05:50:10.888Z,5.20
2023-03-31T05:52:38.679Z,5.60
2023-03-31T05:55:05.874Z,5.30
2023-03-31T05:57:32.691Z,4.70
2023-03-31T05:59:59.566Z,4.90
2023-03-31T06:02:26.498Z,5.23
2023-03-31T06:04:53.530Z,4.80
2023-03-31T06:07:22.158Z,5.90
2023-03-31T06:09:48.968Z,5.10
2023-03-31T06:12:16.647Z,4.90
2023-03-31T06:14:43.378Z,4.30
2023-03-31T06:17:10.118Z,4.17
2023-03-31T06:19:36.851Z,4.50
2023-03-31T06:22:03.618Z,4.47
2023-03-31T06:24:30.368Z,4.60
2023-03-31T06:26:57.254Z,4.63
2023-03-31T06:29:24.174Z,4.23
2023-03-31T06:31:50.887Z,5.63
2023-03-31T06:34:19.377Z,4.57
2023-03-31T06:36:47.627Z,3.73
2023-03-31T06:39:14.499Z,3.70
2023-03-31T06:41:41.175Z,4.00
2023-03-31T06:44:07.933Z,3.30
2023-03-31T06:46:35.918Z,3.53
2023-03-31T06:49:02.726Z,4.43
2023-03-31T06:51:30.643Z,3.57
2023-03-31T06:53:59.430Z,3.33
2023-03-31T06:56:27.285Z,3.30
2023-03-31T06:58:56.476Z,3.50
2023-03-31T07:01:23.372Z,3.43
2023-03-31T07:03:50.240Z,3.13
2023-03-31T07:06:17.161Z,2.90
2023-03-31T07:08:43.994Z,3.20
2023-03-31T07:11:11.552Z,2.87
2023-03-31T07:13:38.581Z,3.17
2023-03-31T07:16:49.148Z,2.70
2023-03-31T07:19:51.123Z,2.80
2023-03-31T07:23:10.638Z,2.40
2023-03-31T07:28:35.944Z,1.93
2023-03-31T07:34:10.818Z,2.07
2023-03-31T07:37:12.229Z,2.20
2023-03-31T07:39:43.329Z,1.97
2023-03-31T07:42:10.517Z,1.80
2023-03-31T07:45:00.900Z,2.37
2023-03-31T07:47:42.327Z,2.23
2023-03-31T07:50:52.978Z,2.40
2023-03-31T07:53:25.050Z,1.80
2023-03-31T07:55:54.746Z,1.60
2023-03-31T07:59:03.165Z,1.80
2023-03-31T08:02:08.573Z,1.80
2023-03-31T08:04:35.693Z,1.73
2023-03-31T08:07:04.525Z,2.17
2023-03-31T08:09:31.244Z,1.70
2023-03-31T08:11:57.958Z,1.83
2023-03-31T08:14:38.053Z,2.17
2023-03-31T08:17:07.012Z,1.77
2023-03-31T08:19:34.028Z,1.83
2023-03-31T08:22:00.959Z,1.70
2023-03-31T08:24:27.699Z,1.57
2023-03-31T08:26:54.533Z,2.17
2023-03-31T08:29:21.278Z,1.53
2023-03-31T08:31:48.032Z,1.80
2023-03-31T08:34:17.660Z,1.40
2023-03-31T08:36:44.421Z,2.40
2023-03-31T08:39:11.235Z,2.13
2023-03-31T08:42:09.380Z,1.43
2023-03-31T08:44:44.793Z,1.43
2023-03-31T08:47:18.547Z,1.87
2023-03-31T08:49:59.165Z,1.30
2023-03-31T08:52:40.013Z,1.70
2023-03-31T08:55:12.300Z,2.30
2023-03-31T08:57:45.544Z,1.70
2023-03-31T09:00:19.042Z,1.87
2023-03-31T09:03:08.382Z,3.93
2023-03-31T09:05:59.608Z,2.10
2023-03-31T09:08:42.401Z,1.97
2023-03-31T09:11:31.320Z,2.30
2023-03-31T09:14:22.840Z,2.00
2023-03-31T09:17:24.511Z,1.90
2023-03-31T09:19:56.321Z,2.30
2023-03-31T09:22:31.568Z,2.00
2023-03-31T09:25:06.113Z,2.20
2023-03-31T09:27:37.305Z,2.47
2023-03-31T09:30:20.682Z,3.10
2023-03-31T09:32:59.444Z,3.63
2023-03-31T09:35:26.741Z,3.17
2023-03-31T09:37:54.261Z,3.40
2023-03-31T09:40:24.435Z,3.37
2023-03-31T09:43:25.061Z,3.73
2023-03-31T09:46:08.473Z,4.00
2023-03-31T09:48:42.325Z,4.07
2023-03-31T09:51:18.630Z,3.90
2023-03-31T09:54:33.551Z,4.30
2023-03-31T09:57:00.583Z,3.57
2023-03-31T09:59:36.205Z,4.30
2023-03-31T10:02:23.917Z,4.40
2023-03-31T10:04:52.418Z,4.20
2023-03-31T10:07:24.267Z,5.57
2023-03-31T10:09:54.179Z,4.10
2023-03-31T10:12:25.345Z,3.90
2023-03-31T10:14:54.524Z,4.37
2023-03-31T10:17:24.954Z,4.50
2023-03-31T10:19:53.410Z,3.97
2023-03-31T10:22:23.212Z,3.50
2023-03-31T10:24:52.035Z,4.33
2023-03-31T10:27:28.038Z,4.53
2023-03-31T10:29:57.024Z,3.70
2023-03-31T10:32:32.721Z,4.10
2023-03-31T10:35:31.428Z,4.20
2023-03-31T10:38:17.036Z,4.13
2023-03-31T10:40:57.597Z,4.73
2023-03-31T10:43:37.264Z,3.97
2023-03-31T10:46:04.429Z,4.40
2023-03-31T10:48:41.382Z,3.93
2023-03-31T10:51:48.182Z,4.00
2023-03-31T10:54:14.997Z,3.87
2023-03-31T10:56:52.862Z,3.60
2023-03-31T10:59:49.846Z,3.27
2023-03-31T11:02:35.518Z,3.00
2023-03-31T11:05:42.438Z,3.97
2023-03-31T11:08:20.166Z,3.40
2023-03-31T11:10:53.214Z,4.10
2023-03-31T11:13:23.791Z,3.07
2023-03-31T11:15:50.721Z,3.20
2023-03-31T11:18:32.612Z,3.20
2023-03-31T11:21:21.308Z,2.95
2023-03-31T11:24:00.822Z,3.27
2023-03-31T11:26:48.898Z,3.53
2023-03-31T11:29:40.742Z,3.22
2023-03-31T11:32:16.850Z,3.42
2023-03-31T11:34:53.412Z,2.92
2023-03-31T11:37:35.518Z,4.35
2023-03-31T11:40:11.697Z,2.60
2023-03-31T11:43:02.979Z,2.90
2023-03-31T11:45:34.828Z,3.58
2023-03-31T11:48:07.872Z,2.63
2023-03-31T11:50:40.153Z,2.85
2023-03-31T11:53:21.126Z,3.28
2023-03-31T11:55:51.901Z,3.13
2023-03-31T11:58:56.240Z,3.00
2023-03-31T12:01:37.870Z,2.60
2023-03-31T12:04:19.824Z,3.20
2023-03-31T12:06:49.512Z,2.72
2023-03-31T12:09:36.647Z,2.72
2023-03-31T12:12:17.032Z,2.67
2023-03-31T12:14:52.487Z,2.97
2023-03-31T12:17:25.370Z,2.90
2023-03-31T12:19:56.633Z,2.78
2023-03-31T12:22:43.826Z,3.03
2023-03-31T12:25:23.124Z,3.05
2023-03-31T12:27:51.588Z,2.22
2023-03-31T12:30:26.121Z,3.47
2023-03-31T12:33:02.212Z,2.47
2023-03-31T12:35:57.646Z,2.10
2023-03-31T12:38:42.000Z,2.90
2023-03-31T12:41:08.847Z,2.80
2023-03-31T12:43:55.852Z,2.63
2023-03-31T12:46:40.624Z,3.10
2023-03-31T12:49:27.930Z,3.10
2023-03-31T12:52:17.226Z,2.30
2023-03-31T12:55:21.689Z,2.67
2023-03-31T12:57:48.421Z,3.00
2023-03-31T13:00:28.016Z,2.92
2023-03-31T13:03:33.954Z,3.03
2023-03-31T13:06:01.054Z,2.70
2023-03-31T13:08:50.768Z,3.13
2023-03-31T13:11:20.294Z,2.93
2023-03-31T13:14:00.967Z,3.20
2023-03-31T13:16:32.734Z,3.67
2023-03-31T13:19:00.753Z,3.07
2023-03-31T13:21:27.830Z,3.20
2023-03-31T13:24:01.498Z,3.20
2023-03-31T13:26:36.978Z,3.00
2023-03-31T13:29:16.522Z,3.50
2023-03-31T13:32:01.739Z,3.87
2023-03-31T13:34:36.997Z,3.70
2023-03-31T13:37:09.717Z,4.67
2023-03-31T13:39:56.636Z,3.77
2023-03-31T13:42:45.908Z,3.43
2023-03-31T13:45:33.681Z,3.47
2023-03-31T13:48:19.104Z,2.80
2023-03-31T13:51:15.964Z,2.70
2023-03-31T13:54:16.970Z,2.70
2023-03-31T13:56:52.872Z,3.17
2023-03-31T13:59:42.389Z,3.13
2023-03-31T14:02:36.646Z,3.33
2023-03-31T14:05:29.733Z,2.67
2023-03-31T14:07:58.386Z,2.70
2023-03-31T14:10:31.500Z,3.23
2023-03-31T14:13:24.516Z,2.57
2023-03-31T14:15:57.336Z,2.40
2023-03-31T14:18:34.266Z,3.33
2023-03-31T14:21:26.580Z,2.77
2023-03-31T14:24:10.570Z,2.37
2023-03-31T14:27:18.822Z,2.60
2023-03-31T14:30:46.931Z,2.57
2023-03-31T14:33:40.013Z,2.03
2023-03-31T14:36:26.067Z,2.23
2023-03-31T14:38:53.123Z,2.30
2023-03-31T14:41:29.714Z,2.03
2023-03-31T14:44:00.541Z,2.10
2023-03-31T14:46:32.691Z,2.43
2023-03-31T14:49:06.321Z,2.33
2023-03-31T14:51:33.328Z,1.90
2023-03-31T14:54:02.326Z,2.53
2023-03-31T14:56:37.616Z,2.70
2023-03-31T14:59:06.628Z,2.60
2023-03-31T15:01:35.750Z,2.10
2023-03-31T15:04:14.145Z,2.23
2023-03-31T15:06:42.283Z,2.00
2023-03-31T15:09:17.935Z,3.70
2023-03-31T15:11:45.869Z,3.00
2023-03-31T15:14:12.790Z,2.00
2023-03-31T15:16:43.087Z,2.67
2023-03-31T15:19:23.114Z,2.23
2023-03-31T15:22:01.959Z,1.90
2023-03-31T15:24:29.764Z,2.50
2023-03-31T15:27:29.787Z,2.17
2023-03-31T15:30:07.033Z,1.80
2023-03-31T15:32:39.436Z,2.30
2023-03-31T15:35:21.150Z,2.17
2023-03-31T15:37:56.523Z,2.23
2023-03-31T15:40:40.285Z,2.00
2023-03-31T15:43:27.491Z,2.10
2023-03-31T15:45:57.218Z,2.50
2023-03-31T15:48:33.932Z,2.10
2023-03-31T15:51:06.489Z,2.00
2023-03-31T15:53:43.662Z,2.47
2023-03-31T15:56:27.155Z,1.50
2023-03-31T15:59:00.729Z,1.77
2023-03-31T16:01:32.797Z,2.90
2023-03-31T16:04:02.156Z,2.60
2023-03-31T16:06:38.220Z,1.73
2023-03-31T16:09:11.459Z,1.60
2023-03-31T16:11:48.949Z,2.00
2023-03-31T16:14:46.117Z,2.10
2023-03-31T16:17:30.428Z,2.43
2023-03-31T16:20:10.881Z,2.70
2023-03-31T16:22:41.797Z,2.37
2023-03-31T16:25:20.596Z,2.33
2023-03-31T16:27:58.331Z,2.50
2023-03-31T16:30:37.399Z,2.30
2023-03-31T16:33:10.995Z,3.00
2023-03-31T16:35:43.304Z,2.37
2023-03-31T16:38:11.702Z,5.03
2023-03-31T16:40:43.463Z,2.30
2023-03-31T16:43:20.464Z,2.03
2023-03-31T16:45:52.441Z,2.10
2023-03-31T16:48:20.769Z,2.30
2023-03-31T16:50:57.862Z,2.37
2023-03-31T16:53:29.322Z,2.00
2023-03-31T16:55:58.580Z,2.50
2023-03-31T16:58:30.349Z,1.37
2023-03-31T17:00:58.506Z,1.60
2023-03-31T17:03:26.166Z,2.60
2023-03-31T17:05:59.568Z,1.53
2023-03-31T17:08:30.187Z,1.60
2023-03-31T17:11:07.042Z,1.80
2023-03-31T17:13:34.552Z,1.37
2023-03-31T17:16:18.696Z,1.60
2023-03-31T17:18:49.501Z,1.43
2023-03-31T17:21:20.265Z,1.87
2023-03-31T17:23:47.884Z,2.33
2023-03-31T17:26:15.703Z,2.40
2023-03-31T17:28:43.235Z,2.23
2023-03-31T17:31:17.767Z,2.53
2023-03-31T17:33:44.799Z,1.80
2023-03-31T17:36:12.122Z,1.83
2023-03-31T17:38:39.980Z,2.43
2023-03-31T17:41:09.341Z,3.20
2023-03-31T17:43:37.972Z,1.80
2023-03-31T17:46:09.870Z,1.93
2023-03-31T17:48:39.227Z,1.70
2023-03-31T17:51:14.322Z,1.87
2023-03-31T17:53:42.834Z,1.90
2023-03-31T17:56:09.945Z,1.90
2023-03-31T17:58:38.107Z,2.60
2023-03-31T18:01:07.819Z,2.80
2023-03-31T18:03:38.533Z,1.50
2023-03-31T18:06:07.675Z,2.00
2023-03-31T18:08:35.143Z,2.03
2023-03-31T18:11:03.390Z,2.07
2023-03-31T18:13:33.238Z,2.23
2023-03-31T18:16:00.453Z,2.10
2023-03-31T18:18:29.066Z,2.90
2023-03-31T18:20:56.361Z,3.37
2023-03-31T18:23:23.876Z,3.10
2023-03-31T18:25:51.066Z,2.27
2023-03-31T18:28:18.214Z,2.13
2023-03-31T18:30:46.395Z,2.93
2023-03-31T18:33:13.694Z,3.07
2023-03-31T18:35:43.507Z,3.40
2023-03-31T18:38:10.715Z,3.00
2023-03-31T18:40:37.806Z,2.80
2023-03-31T18:43:05.939Z,2.40
2023-03-31T18:45:33.042Z,3.88
2023-03-31T18:48:00.317Z,3.17
2023-03-31T18:50:27.364Z,2.93
2023-03-31T18:52:54.870Z,2.87
2023-03-31T18:55:23.456Z,3.07
2023-03-31T18:57:50.407Z,2.90
2023-03-31T19:00:20.225Z,3.80
2023-03-31T19:02:47.649Z,3.00
2023-03-31T19:05:14.675Z,3.07
2023-03-31T19:07:41.599Z,3.10
2023-03-31T19:10:09.101Z,3.27
2023-03-31T19:12:35.961Z,3.20
2023-03-31T19:15:03.609Z,2.87
2023-03-31T19:17:35.191Z,2.90
2023-03-31T19:20:02.265Z,3.27
2023-03-31T19:22:32.376Z,3.27
2023-03-31T19:24:59.502Z,2.90
2023-03-31T19:27:26.619Z,3.60
2023-03-31T19:29:53.553Z,3.73
2023-03-31T19:32:20.512Z,3.53
2023-03-31T19:34:47.463Z,3.23
2023-03-31T19:37:15.330Z,3.87
2023-03-31T19:39:42.418Z,3.80
2023-03-31T19:42:09.223Z,3.80
2023-03-31T19:44:36.507Z,4.20
2023-03-31T19:47:03.651Z,4.10
2023-03-31T19:49:30.737Z,3.90
2023-03-31T19:51:57.866Z,4.07
2023-03-31T19:54:24.901Z,4.07
2023-03-31T19:56:51.724Z,4.83
2023-03-31T19:59:18.576Z,4.67
2023-03-31T20:01:45.681Z,4.60
2023-03-31T20:04:17.113Z,4.40
2023-03-31T20:06:44.634Z,4.60
2023-03-31T20:09:11.439Z,4.27
2023-03-31T20:11:40.031Z,4.40
2023-03-31T20:14:07.520Z,4.93
2023-03-31T20:16:34.685Z,5.00
2023-03-31T20:19:04.537Z,4.73
2023-03-31T20:21:34.011Z,4.63
2023-03-31T20:24:00.950Z,4.70
2023-03-31T20:26:30.139Z,4.30
2023-03-31T20:28:58.801Z,4.23
2023-03-31T20:31:28.936Z,4.20
2023-03-31T20:33:56.856Z,4.17
2023-03-31T20:36:27.201Z,4.43
2023-03-31T20:38:54.895Z,4.23
2023-03-31T20:41:26.364Z,4.17
2023-03-31T20:43:54.655Z,3.93
2023-03-31T20:46:22.345Z,4.20
2023-03-31T20:48:51.731Z,3.90
2023-03-31T20:51:24.606Z,3.97
2023-03-31T20:53:53.234Z,4.10
2023-03-31T20:56:27.902Z,4.10
2023-03-31T20:58:57.730Z,3.80
2023-03-31T21:01:26.432Z,4.00
2023-03-31T21:03:54.792Z,3.93
2023-03-31T21:06:21.677Z,3.90
2023-03-31T21:08:52.350Z,4.20
2023-03-31T21:11:19.376Z,3.23
2023-03-31T21:13:48.796Z,3.00
2023-03-31T21:16:16.336Z,3.23
2023-03-31T21:18:43.864Z,3.70
2023-03-31T21:21:13.460Z,3.63
2023-03-31T21:23:40.581Z,3.37
2023-03-31T21:26:09.053Z,3.97
2023-03-31T21:28:37.768Z,3.37
2023-03-31T21:31:10.821Z,3.00
2023-03-31T21:33:39.908Z,2.80
2023-03-31T21:36:09.598Z,2.97
2023-03-31T21:38:37.131Z,3.33
2023-03-31T21:41:19.339Z,4.00
2023-03-31T21:43:46.688Z,3.20
2023-03-31T21:46:19.001Z,3.23
2023-03-31T21:48:47.831Z,3.40
2023-03-31T21:51:14.667Z,3.60
2023-03-31T21:53:41.799Z,3.53
2023-03-31T21:56:08.861Z,3.40
2023-03-31T21:58:35.731Z,4.72
2023-03-31T22:01:04.042Z,4.07
2023-03-31T22:03:34.366Z,3.40
2023-03-31T22:06:07.128Z,3.40
2023-03-31T22:08:36.677Z,3.43
2023-03-31T22:11:05.207Z,3.30
2023-03-31T22:13:32.027Z,3.20
2023-03-31T22:16:00.420Z,3.30
2023-03-31T22:18:28.258Z,3.43
2023-03-31T22:20:55.084Z,3.20
2023-03-31T22:23:22.088Z,3.53
2023-03-31T22:25:49.345Z,3.27
2023-03-31T22:28:16.934Z,3.00
2023-03-31T22:30:44.131Z,4.23
2023-03-31T22:33:12.100Z,3.07
2023-03-31T22:35:39.067Z,3.20
2023-03-31T22:38:06.642Z,3.50
2023-03-31T22:40:34.994Z,3.40
2023-03-31T22:43:01.919Z,2.90
2023-03-31T22:45:28.825Z,3.07
2023-03-31T22:47:56.456Z,2.80
2023-03-31T22:50:23.812Z,2.90
2023-03-31T22:52:50.988Z,2.87
2023-03-31T22:55:17.994Z,2.80
2023-03-31T22:57:45.010Z,3.30
2023-03-31T23:00:12.792Z,3.03
2023-03-31T23:02:40.092Z,3.10
2023-03-31T23:05:07.768Z,3.30
2023-03-31T23:07:34.790Z,3.20
2023-03-31T23:10:01.606Z,3.40
2023-03-31T23:12:28.830Z,3.77
2023-03-31T23:14:55.706Z,3.60
2023-03-31T23:17:22.463Z,3.87
2023-03-31T23:19:49.355Z,3.70
2023-03-31T23:22:16.237Z,3.50
2023-03-31T23:24:44.562Z,4.17
2023-03-31T23:27:11.570Z,3.60
2023-03-31T23:29:38.420Z,3.90
2023-03-31T23:32:06.074Z,4.30
2023-03-31T23:34:32.882Z,3.80
2023-03-31T23:37:00.021Z,4.23
2023-03-31T23:39:27.273Z,4.50
2023-03-31T23:41:53.969Z,5.33
2023-03-31T23:44:21.151Z,3.70
2023-03-31T23:46:48.059Z,3.97
2023-03-31T23:49:14.771Z,3.47
2023-03-31T23:51:41.604Z,3.50
2023-03-31T23:54:08.488Z,3.67
2023-03-31T23:56:35.272Z,3.10
2023-03-31T23:59:02.039Z,3.03
